createdAt,value
2022-11-02T00:02:11.894Z,0.60
2022-11-02T00:04:38.443Z,0.90
2022-11-02T00:07:04.959Z,0.63
2022-11-02T00:09:31.468Z,0.60
2022-11-02T00:11:58.071Z,0.53
2022-11-02T00:14:24.601Z,0.77
2022-11-02T00:16:51.629Z,0.53
2022-11-02T00:19:18.291Z,0.50
2022-11-02T00:21:45.052Z,0.60
2022-11-02T00:24:12.419Z,0.50
2022-11-02T00:26:39.034Z,0.33
2022-11-02T00:29:07.406Z,0.60
2022-11-02T00:31:34.021Z,0.43
2022-11-02T00:34:00.557Z,0.80
2022-11-02T00:36:27.938Z,0.67
2022-11-02T00:38:54.513Z,0.60
2022-11-02T00:41:21.944Z,0.50
2022-11-02T00:43:48.476Z,0.60
2022-11-02T00:46:15.013Z,0.70
2022-11-02T00:48:41.552Z,0.63
2022-11-02T00:51:08.076Z,0.50
2022-11-02T00:53:34.601Z,0.57
2022-11-02T00:56:01.154Z,0.60
2022-11-02T00:58:27.663Z,0.50
2022-11-02T01:00:56.383Z,0.60
2022-11-02T01:03:22.983Z,0.70
2022-11-02T01:05:49.534Z,0.70
2022-11-02T01:08:16.057Z,0.97
2022-11-02T01:10:45.586Z,0.60
2022-11-02T01:13:15.778Z,0.70
2022-11-02T01:15:43.015Z,0.60
2022-11-02T01:18:09.539Z,0.70
2022-11-02T01:20:36.070Z,0.60
2022-11-02T01:23:02.626Z,0.53
2022-11-02T01:25:29.330Z,0.50
2022-11-02T01:27:55.872Z,0.57
2022-11-02T01:30:22.400Z,0.50
2022-11-02T01:32:48.957Z,0.60
2022-11-02T01:35:16.602Z,0.60
2022-11-02T01:37:43.305Z,0.60
2022-11-02T01:40:10.353Z,0.80
2022-11-02T01:42:36.871Z,0.47
2022-11-02T01:45:03.775Z,0.70
2022-11-02T01:47:35.330Z,0.60
2022-11-02T01:50:12.874Z,0.60
2022-11-02T01:52:41.241Z,0.70
2022-11-02T01:55:19.179Z,0.60
2022-11-02T01:57:52.370Z,0.70
2022-11-02T02:00:19.759Z,0.60
2022-11-02T02:02:59.495Z,0.60
2022-11-02T02:05:26.284Z,0.83
2022-11-02T02:07:53.739Z,0.60
2022-11-02T02:10:20.426Z,0.47
2022-11-02T02:12:47.754Z,0.50
2022-11-02T02:15:14.792Z,0.60
2022-11-02T02:17:47.631Z,0.50
2022-11-02T02:20:44.032Z,0.50
2022-11-02T02:23:22.491Z,0.63
2022-11-02T02:26:13.641Z,0.50
2022-11-02T02:28:53.477Z,0.60
2022-11-02T02:31:31.848Z,0.73
2022-11-02T02:34:19.056Z,0.50
2022-11-02T02:37:08.767Z,0.60
2022-11-02T02:39:51.859Z,0.60
2022-11-02T02:42:36.550Z,0.60
2022-11-02T02:45:40.566Z,0.50
2022-11-02T02:48:24.745Z,0.50
2022-11-02T02:50:56.026Z,0.60
2022-11-02T02:53:33.196Z,0.47
2022-11-02T02:56:02.136Z,0.60
2022-11-02T02:58:43.774Z,0.70
2022-11-02T03:01:14.207Z,0.67
2022-11-02T03:03:42.711Z,0.40
2022-11-02T03:06:09.199Z,0.53
2022-11-02T03:08:39.496Z,0.53
2022-11-02T03:11:14.096Z,0.50
2022-11-02T03:14:04.515Z,0.70
2022-11-02T03:16:49.903Z,0.50
2022-11-02T03:19:35.012Z,0.40
2022-11-02T03:22:18.468Z,0.50
2022-11-02T03:25:13.119Z,0.80
2022-11-02T03:27:51.515Z,0.73
2022-11-02T03:30:21.002Z,0.50
2022-11-02T03:33:07.612Z,0.50
2022-11-02T03:35:47.829Z,0.50
2022-11-02T03:38:21.722Z,0.50
2022-11-02T03:40:50.998Z,0.50
2022-11-02T03:43:20.496Z,0.70
2022-11-02T03:45:54.653Z,0.53
2022-11-02T03:48:25.801Z,0.50
2022-11-02T03:50:54.665Z,0.50
2022-11-02T03:53:34.859Z,0.50
2022-11-02T03:56:09.820Z,0.70
2022-11-02T03:58:36.579Z,0.50
2022-11-02T04:01:08.039Z,0.47
2022-11-02T04:03:42.891Z,0.60
2022-11-02T04:06:09.638Z,0.50
2022-11-02T04:08:39.438Z,0.60
2022-11-02T04:11:25.221Z,0.57
2022-11-02T04:14:10.563Z,0.50
2022-11-02T04:16:37.179Z,0.60
2022-11-02T04:19:22.625Z,0.60
2022-11-02T04:22:09.230Z,0.60
2022-11-02T04:24:54.624Z,0.50
2022-11-02T04:27:21.512Z,0.53
2022-11-02T04:29:48.725Z,1.00
2022-11-02T04:32:35.581Z,0.50
2022-11-02T04:35:03.172Z,0.50
2022-11-02T04:37:48.357Z,0.40
2022-11-02T04:40:15.018Z,0.60
2022-11-02T04:42:45.788Z,0.50
2022-11-02T04:45:12.379Z,0.40
2022-11-02T04:47:38.888Z,0.50
2022-11-02T04:50:05.839Z,0.67
2022-11-02T04:52:32.446Z,0.67
2022-11-02T04:54:59.016Z,0.70
2022-11-02T04:57:25.616Z,0.60
2022-11-02T04:59:52.149Z,0.60
2022-11-02T05:02:18.788Z,0.50
2022-11-02T05:04:45.464Z,0.50
2022-11-02T05:07:12.007Z,0.50
2022-11-02T05:09:38.558Z,0.50
2022-11-02T05:12:05.366Z,0.50
2022-11-02T05:14:31.991Z,0.60
2022-11-02T05:16:58.692Z,0.50
2022-11-02T05:19:25.342Z,0.50
2022-11-02T05:21:51.902Z,0.53
2022-11-02T05:24:18.446Z,0.67
2022-11-02T05:26:47.572Z,0.70
2022-11-02T05:29:16.379Z,0.50
2022-11-02T05:31:42.895Z,0.50
2022-11-02T05:34:09.413Z,0.50
2022-11-02T05:36:36.045Z,0.50
2022-11-02T05:39:02.639Z,0.47
2022-11-02T05:41:29.232Z,0.50
2022-11-02T05:43:55.909Z,0.50
2022-11-02T05:46:22.431Z,0.50
2022-11-02T05:48:48.952Z,0.47
2022-11-02T05:51:15.786Z,1.00
2022-11-02T05:53:42.406Z,1.40
2022-11-02T05:56:10.224Z,1.10
2022-11-02T05:58:37.238Z,1.40
2022-11-02T06:01:06.159Z,1.60
2022-11-02T06:03:36.555Z,1.00
2022-11-02T06:06:05.945Z,1.27
2022-11-02T06:08:37.324Z,0.83
2022-11-02T06:11:05.787Z,1.27
2022-11-02T06:13:32.513Z,1.40
2022-11-02T06:16:00.587Z,1.20
2022-11-02T06:18:27.230Z,1.17
2022-11-02T06:20:53.881Z,1.17
2022-11-02T06:23:20.491Z,0.93
2022-11-02T06:25:54.611Z,1.30
2022-11-02T06:28:21.413Z,0.90
2022-11-02T06:30:49.308Z,0.90
2022-11-02T06:33:19.903Z,0.90
2022-11-02T06:35:48.187Z,0.87
2022-11-02T06:38:15.413Z,1.00
2022-11-02T06:40:42.248Z,0.70
2022-11-02T06:43:16.481Z,0.80
2022-11-02T06:45:44.973Z,1.43
2022-11-02T06:48:11.508Z,0.80
2022-11-02T06:50:38.267Z,0.80
2022-11-02T06:53:05.013Z,1.33
2022-11-02T06:55:31.817Z,0.80
2022-11-02T06:57:58.355Z,0.80
2022-11-02T07:00:25.331Z,0.60
2022-11-02T07:03:03.539Z,0.73
2022-11-02T07:05:32.441Z,0.50
2022-11-02T07:07:59.331Z,0.77
2022-11-02T07:10:26.354Z,0.90
2022-11-02T07:12:54.753Z,0.90
2022-11-02T07:15:22.423Z,0.60
2022-11-02T07:17:48.983Z,0.80
2022-11-02T07:20:16.151Z,0.80
2022-11-02T07:22:42.961Z,1.30
2022-11-02T07:25:09.606Z,0.90
2022-11-02T07:27:40.044Z,0.57
2022-11-02T07:30:07.817Z,0.70
2022-11-02T07:32:44.343Z,1.03
2022-11-02T07:35:12.728Z,0.70
2022-11-02T07:37:39.900Z,0.60
2022-11-02T07:40:08.891Z,0.53
2022-11-02T07:42:35.775Z,0.70
2022-11-02T07:45:02.378Z,0.50
2022-11-02T07:47:30.119Z,0.80
2022-11-02T07:49:59.452Z,0.53
2022-11-02T07:52:26.525Z,0.60
2022-11-02T07:54:55.549Z,0.93
2022-11-02T07:57:23.149Z,0.53
2022-11-02T07:59:49.715Z,0.50
2022-11-02T08:02:16.259Z,0.70
2022-11-02T08:04:45.016Z,0.50
2022-11-02T08:07:12.470Z,0.40
2022-11-02T08:09:39.217Z,0.50
2022-11-02T08:12:06.047Z,0.60
2022-11-02T08:14:32.605Z,0.60
2022-11-02T08:16:59.131Z,0.80
2022-11-02T08:19:25.700Z,0.57
2022-11-02T08:21:52.828Z,0.80
2022-11-02T08:24:19.385Z,0.80
2022-11-02T08:26:47.514Z,1.20
2022-11-02T08:29:15.154Z,0.77
2022-11-02T08:31:41.809Z,0.70
2022-11-02T08:34:09.431Z,0.70
2022-11-02T08:36:36.745Z,0.60
2022-11-02T08:39:03.618Z,0.60
2022-11-02T08:41:30.127Z,0.50
2022-11-02T08:43:57.441Z,0.83
2022-11-02T08:46:23.963Z,0.80
2022-11-02T08:48:50.977Z,0.50
2022-11-02T08:51:17.545Z,0.70
2022-11-02T08:53:50.156Z,0.80
2022-11-02T08:56:16.904Z,0.70
2022-11-02T08:58:43.429Z,0.70
2022-11-02T09:01:10.066Z,0.67
2022-11-02T09:03:36.675Z,0.70
2022-11-02T09:06:03.243Z,0.67
2022-11-02T09:08:30.562Z,0.70
2022-11-02T09:11:02.665Z,0.80
2022-11-02T09:13:29.815Z,0.73
2022-11-02T09:15:58.593Z,0.70
2022-11-02T09:18:25.409Z,0.70
2022-11-02T09:20:52.080Z,0.60
2022-11-02T09:23:20.366Z,0.80
2022-11-02T09:25:47.634Z,0.70
2022-11-02T09:28:15.540Z,0.73
2022-11-02T09:30:42.860Z,1.07
2022-11-02T09:33:09.854Z,1.10
2022-11-02T09:35:39.187Z,0.90
2022-11-02T09:38:05.873Z,0.73
2022-11-02T09:40:43.395Z,1.17
2022-11-02T09:43:32.387Z,1.50
2022-11-02T09:46:09.343Z,1.63
2022-11-02T09:48:58.630Z,0.73
2022-11-02T09:51:38.594Z,0.90
2022-11-02T09:54:13.231Z,1.27
2022-11-02T09:56:43.563Z,3.40
2022-11-02T09:59:17.558Z,6.73
2022-11-02T10:01:50.287Z,6.57
2022-11-02T10:04:43.244Z,1.43
2022-11-02T10:07:40.824Z,1.43
2022-11-02T10:10:28.930Z,1.70
2022-11-02T10:13:17.808Z,1.13
2022-11-02T10:15:52.474Z,1.20
2022-11-02T10:18:24.111Z,1.40
2022-11-02T10:20:58.314Z,1.43
2022-11-02T10:23:39.837Z,1.43
2022-11-02T10:26:12.992Z,1.30
2022-11-02T10:28:42.055Z,1.37
2022-11-02T10:31:35.098Z,1.10
2022-11-02T10:34:20.622Z,1.23
2022-11-02T10:37:06.739Z,0.80
2022-11-02T10:39:50.404Z,0.90
2022-11-02T10:42:22.199Z,1.03
2022-11-02T10:45:05.842Z,1.33
2022-11-02T10:47:56.363Z,0.83
2022-11-02T10:50:46.956Z,1.10
2022-11-02T10:56:19.486Z,1.20
2022-11-02T10:59:03.632Z,0.87
2022-11-02T11:01:31.791Z,1.83
2022-11-02T11:04:00.356Z,1.03
2022-11-02T11:06:29.197Z,1.00
2022-11-02T11:09:01.181Z,0.90
2022-11-02T11:11:32.849Z,0.87
2022-11-02T11:19:51.895Z,0.80
2022-11-02T11:22:24.172Z,1.03
2022-11-02T11:24:50.784Z,0.70
2022-11-02T11:27:23.731Z,0.90
2022-11-02T11:29:56.460Z,0.93
2022-11-02T11:32:30.742Z,0.70
2022-11-02T11:35:03.760Z,0.73
2022-11-02T11:37:31.039Z,1.10
2022-11-02T11:40:16.084Z,0.80
2022-11-02T11:42:43.388Z,0.80
2022-11-02T11:45:27.151Z,1.10
2022-11-02T11:48:07.933Z,0.97
2022-11-02T11:50:34.617Z,0.90
2022-11-02T11:53:23.005Z,1.00
2022-11-02T11:55:54.816Z,0.90
2022-11-02T11:58:32.858Z,0.73
2022-11-02T12:01:18.120Z,1.40
2022-11-02T12:03:55.479Z,0.70
2022-11-02T12:06:55.256Z,1.83
2022-11-02T12:09:41.274Z,0.70
2022-11-02T12:12:35.774Z,0.83
2022-11-02T12:15:19.945Z,0.73
2022-11-02T12:18:08.657Z,0.80
2022-11-02T12:20:57.111Z,0.70
2022-11-02T12:23:48.207Z,0.53
2022-11-02T12:26:27.739Z,0.70
2022-11-02T12:29:01.176Z,0.73
2022-11-02T12:31:38.434Z,0.70
2022-11-02T12:34:21.888Z,0.87
2022-11-02T12:37:41.422Z,1.03
2022-11-02T12:40:21.220Z,0.60
2022-11-02T12:43:33.647Z,0.93
2022-11-02T12:46:03.289Z,0.97
2022-11-02T12:48:45.903Z,0.73
2022-11-02T12:51:17.841Z,1.10
2022-11-02T12:53:46.605Z,0.80
2022-11-02T12:56:19.540Z,0.50
2022-11-02T12:58:46.372Z,0.70
2022-11-02T13:01:35.215Z,0.60
2022-11-02T13:04:18.433Z,0.60
2022-11-02T13:06:48.621Z,0.60
2022-11-02T13:09:38.287Z,0.67
2022-11-02T13:12:18.544Z,0.60
2022-11-02T13:14:47.955Z,1.23
2022-11-02T13:17:22.646Z,0.53
2022-11-02T13:19:54.129Z,0.60
2022-11-02T13:22:28.159Z,0.73
2022-11-02T13:25:06.156Z,0.57
2022-11-02T13:27:39.105Z,1.30
2022-11-02T13:30:18.086Z,0.80
2022-11-02T13:32:50.007Z,0.73
2022-11-02T13:35:23.803Z,0.77
2022-11-02T13:37:56.292Z,0.80
2022-11-02T13:40:36.243Z,0.70
2022-11-02T13:43:13.197Z,0.70
2022-11-02T13:46:04.668Z,0.63
2022-11-02T13:48:39.328Z,0.70
2022-11-02T13:51:15.469Z,0.50
2022-11-02T13:53:52.151Z,0.50
2022-11-02T13:56:28.918Z,0.60
2022-11-02T13:59:03.252Z,0.63
2022-11-02T14:01:32.414Z,0.50
2022-11-02T14:04:06.476Z,0.60
2022-11-02T14:06:44.139Z,0.80
2022-11-02T14:09:20.502Z,1.00
2022-11-02T14:11:49.199Z,0.80
2022-11-02T14:14:24.717Z,0.80
2022-11-02T14:16:51.289Z,0.67
2022-11-02T14:19:19.212Z,0.70
2022-11-02T14:22:12.974Z,0.60
2022-11-02T14:24:39.612Z,0.83
2022-11-02T14:27:11.926Z,0.80
2022-11-02T14:29:47.130Z,0.73
2022-11-02T14:32:16.811Z,0.80
2022-11-02T14:35:27.077Z,0.97
2022-11-02T14:38:16.053Z,0.80
2022-11-02T14:41:00.465Z,0.60
2022-11-02T14:44:06.082Z,0.80
2022-11-02T14:47:01.226Z,0.80
2022-11-02T14:49:36.791Z,0.90
2022-11-02T14:52:15.291Z,0.83
2022-11-02T14:54:51.796Z,0.83
2022-11-02T14:57:29.577Z,1.13
2022-11-02T14:59:59.207Z,1.10
2022-11-02T15:02:40.284Z,1.03
2022-11-02T15:05:39.770Z,0.90
2022-11-02T15:08:09.280Z,1.57
2022-11-02T15:10:41.934Z,0.63
2022-11-02T15:13:20.616Z,0.80
2022-11-02T15:15:50.252Z,1.10
2022-11-02T15:18:34.772Z,0.90
2022-11-02T15:21:10.571Z,1.17
2022-11-02T15:24:15.562Z,1.53
2022-11-02T15:26:59.201Z,1.00
2022-11-02T15:29:32.222Z,1.00
2022-11-02T15:32:00.954Z,1.10
2022-11-02T15:34:42.468Z,2.00
2022-11-02T15:37:18.732Z,1.50
2022-11-02T15:39:56.880Z,2.00
2022-11-02T15:42:35.888Z,1.37
2022-11-02T15:45:56.904Z,1.10
2022-11-02T15:48:56.526Z,1.30
2022-11-02T15:51:35.083Z,1.40
2022-11-02T15:54:24.692Z,1.10
2022-11-02T15:57:13.801Z,1.27
2022-11-02T16:00:30.305Z,1.27
2022-11-02T16:03:17.627Z,1.67
2022-11-02T16:05:47.328Z,3.10
2022-11-02T16:08:34.134Z,1.40
2022-11-02T16:11:20.222Z,1.20
2022-11-02T16:14:07.618Z,1.17
2022-11-02T16:16:46.382Z,1.73
2022-11-02T16:19:20.564Z,1.10
2022-11-02T16:21:49.053Z,1.40
2022-11-02T16:24:16.196Z,0.90
2022-11-02T16:26:44.762Z,1.23
2022-11-02T16:29:11.944Z,1.47
2022-11-02T16:31:41.051Z,1.10
2022-11-02T16:34:28.347Z,1.00
2022-11-02T16:36:55.390Z,1.63
2022-11-02T16:39:36.405Z,1.20
2022-11-02T16:42:09.445Z,1.50
2022-11-02T16:44:36.303Z,1.20
2022-11-02T16:47:09.535Z,1.20
2022-11-02T16:49:57.510Z,1.00
2022-11-02T16:52:32.947Z,1.77
2022-11-02T16:54:59.643Z,1.53
2022-11-02T16:57:31.817Z,1.47
2022-11-02T17:00:11.305Z,1.67
2022-11-02T17:02:42.822Z,1.10
2022-11-02T17:05:20.043Z,1.20
2022-11-02T17:08:05.273Z,1.20
2022-11-02T17:10:34.500Z,1.57
2022-11-02T17:13:02.852Z,1.20
2022-11-02T17:15:32.233Z,1.20
2022-11-02T17:18:08.260Z,1.10
2022-11-02T17:20:37.024Z,1.27
2022-11-02T17:23:06.832Z,1.30
2022-11-02T17:25:38.588Z,1.17
2022-11-02T17:28:40.741Z,1.30
2022-11-02T17:31:18.721Z,1.10
2022-11-02T17:33:46.350Z,1.47
2022-11-02T17:36:14.043Z,1.40
2022-11-02T17:38:40.628Z,1.60
2022-11-02T17:41:30.270Z,2.23
2022-11-02T17:43:59.727Z,2.10
2022-11-02T17:46:26.309Z,2.13
2022-11-02T17:48:52.827Z,2.97
2022-11-02T17:51:24.063Z,3.07
2022-11-02T17:53:50.770Z,3.07
2022-11-02T17:56:17.371Z,2.40
2022-11-02T17:58:43.921Z,2.57
2022-11-02T18:01:12.660Z,2.20
2022-11-02T18:03:39.557Z,2.90
2022-11-02T18:06:06.487Z,2.60
2022-11-02T18:08:53.004Z,2.60
2022-11-02T18:11:24.885Z,2.40
2022-11-02T18:13:52.748Z,2.50
2022-11-02T18:16:19.369Z,2.30
2022-11-02T18:18:45.881Z,2.30
2022-11-02T18:21:12.748Z,2.60
2022-11-02T18:23:40.758Z,2.50
2022-11-02T18:26:11.739Z,2.07
2022-11-02T18:28:38.805Z,2.30
2022-11-02T18:31:06.795Z,2.20
2022-11-02T18:33:33.532Z,2.47
2022-11-02T18:36:05.145Z,2.10
2022-11-02T18:38:31.700Z,2.50
2022-11-02T18:41:26.033Z,2.10
2022-11-02T18:43:53.128Z,2.57
2022-11-02T18:46:19.783Z,2.10
2022-11-02T18:48:46.797Z,2.20
2022-11-02T18:51:13.348Z,2.03
2022-11-02T18:53:39.871Z,2.20
2022-11-02T18:56:07.865Z,1.60
2022-11-02T18:58:34.405Z,2.47
2022-11-02T19:01:08.780Z,2.20
2022-11-02T19:03:38.958Z,1.60
2022-11-02T19:06:24.152Z,1.83
2022-11-02T19:09:09.518Z,1.90
2022-11-02T19:11:36.546Z,1.87
2022-11-02T19:14:04.968Z,2.30
2022-11-02T19:16:32.629Z,1.93
2022-11-02T19:18:59.296Z,1.70
2022-11-02T19:21:25.803Z,2.53
2022-11-02T19:23:52.340Z,2.10
2022-11-02T19:26:18.881Z,2.00
2022-11-02T19:28:45.422Z,2.10
2022-11-02T19:31:11.999Z,1.90
2022-11-02T19:33:38.772Z,1.40
2022-11-02T19:36:06.149Z,1.70
2022-11-02T19:38:39.739Z,1.80
2022-11-02T19:41:11.754Z,1.67
2022-11-02T19:43:39.838Z,1.80
2022-11-02T19:46:18.197Z,1.60
2022-11-02T19:48:45.138Z,1.60
2022-11-02T19:51:17.455Z,2.03
2022-11-02T19:53:51.543Z,1.77
2022-11-02T19:56:19.476Z,1.60
2022-11-02T19:58:47.940Z,1.80
2022-11-02T20:01:17.038Z,1.50
2022-11-02T20:03:44.556Z,1.90
2022-11-02T20:06:13.921Z,1.23
2022-11-02T20:08:40.941Z,1.63
2022-11-02T20:11:13.454Z,1.70
2022-11-02T20:13:42.343Z,1.83
2022-11-02T20:16:10.845Z,1.53
2022-11-02T20:18:39.748Z,1.37
2022-11-02T20:21:12.006Z,1.63
2022-11-02T20:23:39.910Z,1.60
2022-11-02T20:26:08.884Z,1.43
2022-11-02T20:28:40.448Z,1.53
2022-11-02T20:31:12.235Z,2.03
2022-11-02T20:33:44.201Z,1.30
2022-11-02T20:36:11.326Z,1.40
2022-11-02T20:38:38.198Z,2.30
2022-11-02T20:41:06.021Z,1.70
2022-11-02T20:43:32.732Z,1.33
2022-11-02T20:46:36.011Z,1.27
2022-11-02T20:49:01.461Z,1.43
2022-11-02T20:51:35.492Z,1.40
2022-11-02T20:54:03.150Z,1.80
2022-11-02T20:56:29.786Z,1.30
2022-11-02T20:58:56.332Z,1.67
2022-11-02T21:01:22.975Z,1.20
2022-11-02T21:03:49.571Z,1.47
2022-11-02T21:06:16.127Z,1.50
2022-11-02T21:08:43.388Z,1.30
2022-11-02T21:11:29.484Z,1.27
2022-11-02T21:13:56.790Z,1.67
2022-11-02T21:16:23.670Z,1.50
2022-11-02T21:18:50.230Z,1.83
2022-11-02T21:21:19.016Z,1.40
2022-11-02T21:23:46.132Z,1.63
2022-11-02T21:26:14.093Z,1.40
2022-11-02T21:28:44.457Z,1.47
2022-11-02T21:31:16.990Z,1.63
2022-11-02T21:33:45.451Z,1.57
2022-11-02T21:36:12.798Z,1.50
2022-11-02T21:38:39.984Z,1.10
2022-11-02T21:41:08.950Z,1.37
2022-11-02T21:43:37.344Z,1.40
2022-11-02T21:46:05.890Z,1.20
2022-11-02T21:48:35.178Z,1.23
2022-11-02T21:51:14.025Z,1.80
2022-11-02T21:53:42.640Z,1.40
2022-11-02T21:56:25.460Z,1.77
2022-11-02T21:58:53.640Z,1.50
2022-11-02T22:01:40.491Z,1.40
2022-11-02T22:04:08.332Z,1.20
2022-11-02T22:06:37.373Z,1.20
2022-11-02T22:09:05.414Z,1.43
2022-11-02T22:11:32.151Z,2.00
2022-11-02T22:14:00.482Z,1.20
2022-11-02T22:16:31.520Z,1.63
2022-11-02T22:18:59.943Z,1.27
2022-11-02T22:21:28.637Z,1.10
2022-11-02T22:23:56.337Z,1.33
2022-11-02T22:26:24.853Z,1.10
2022-11-02T22:28:51.708Z,1.40
2022-11-02T22:31:21.895Z,1.13
2022-11-02T22:33:52.319Z,1.27
2022-11-02T22:36:20.936Z,1.67
2022-11-02T22:38:54.072Z,1.53
2022-11-02T22:41:25.156Z,1.50
2022-11-02T22:43:54.756Z,1.33
2022-11-02T22:46:22.499Z,0.93
2022-11-02T22:48:51.995Z,1.37
2022-11-02T22:51:20.821Z,1.50
2022-11-02T22:53:48.264Z,1.70
2022-11-02T22:56:16.688Z,1.13
2022-11-02T22:58:45.358Z,1.10
2022-11-02T23:01:18.217Z,1.47
2022-11-02T23:03:45.284Z,1.60
2022-11-02T23:06:12.620Z,1.20
2022-11-02T23:08:46.952Z,1.73
2022-11-02T23:11:21.518Z,1.53
2022-11-02T23:14:00.284Z,1.23
2022-11-02T23:16:28.189Z,1.23
2022-11-02T23:19:27.333Z,1.60
2022-11-02T23:22:29.328Z,1.60
2022-11-02T23:25:14.852Z,1.50
2022-11-02T23:28:14.485Z,1.57
2022-11-02T23:30:59.979Z,1.20
2022-11-02T23:33:36.049Z,1.30
2022-11-02T23:36:13.118Z,1.33
2022-11-02T23:39:02.789Z,1.20
2022-11-02T23:41:30.668Z,1.53
2022-11-02T23:44:13.730Z,1.97
2022-11-02T23:46:45.265Z,1.20
2022-11-02T23:49:12.843Z,1.50
2022-11-02T23:51:57.938Z,1.13
2022-11-02T23:54:43.271Z,1.07
2022-11-02T23:57:09.813Z,1.50
2022-11-02T23:59:36.379Z,1.10
